Time;durP1;ratioP1;P1;durP2;ratioP2;P2;SDS_P1;SDS_P2;PMS_P1;PMS_P2;Temp;Humidity;BMP_temperature;BMP_pressure;BME280_temperature;BME280_humidity;BME280_pressure;Samples;Min_cycle;Max_cycle;Signal;HPM_P1;HPM_P2
2022/01/22 00:01:21;;;;;;;13.70;4.30;;;;;;;-3.06;82.92;98694.33;108437;1274;22564;-74
2022/01/22 00:03:48;;;;;;;15.90;4.50;;;;;;;-3.06;83.32;98699.93;108435;1273;22683;-75
2022/01/22 00:06:15;;;;;;;13.80;4.80;;;;;;;-3.07;83.45;98691.09;108448;1273;24406;-76
2022/01/22 00:08:42;;;;;;;12.90;4.70;;;;;;;-3.08;83.51;98693.31;108441;1274;22652;-75
2022/01/22 00:11:09;;;;;;;11.20;3.50;;;;;;;-3.11;83.26;98690.09;108432;1274;22559;-75
2022/01/22 00:16:22;;;;;;;15.20;4.40;;;;;;;-3.13;82.96;98692.16;108447;1274;22631;-77
2022/01/22 00:18:49;;;;;;;10.40;4.60;;;;;;;-3.08;82.89;98686.33;108424;1274;24470;-77
2022/01/22 00:21:16;;;;;;;14.10;3.50;;;;;;;-3.05;82.91;98681.70;108446;1274;22585;-77
2022/01/22 00:23:48;;;;;;;12.80;3.70;;;;;;;-3.04;83.32;98684.23;108453;1274;22565;-77
2022/01/22 00:26:15;;;;;;;8.90;3.00;;;;;;;-3.05;83.55;98685.77;108459;1274;22567;-76
2022/01/22 00:28:42;;;;;;;7.50;3.20;;;;;;;-3.06;83.62;98682.56;108452;1274;22573;-77
2022/01/22 00:31:09;;;;;;;10.60;2.90;;;;;;;-3.08;83.36;98691.94;108442;1274;22585;-75
2022/01/22 00:33:36;;;;;;;7.80;2.50;;;;;;;-3.09;83.11;98690.25;108450;1274;22626;-76
2022/01/22 00:36:03;;;;;;;10.90;3.40;;;;;;;-3.09;82.79;98687.86;108454;1274;22589;-77
2022/01/22 00:38:30;;;;;;;12.90;3.60;;;;;;;-3.10;82.94;98691.11;108444;1274;22627;-75
2022/01/22 00:40:57;;;;;;;10.90;4.90;;;;;;;-3.04;82.73;98693.43;108438;1274;22565;-76
2022/01/22 00:43:24;;;;;;;15.10;4.20;;;;;;;-3.00;83.04;98686.58;108432;1274;22550;-75
2022/01/22 00:45:50;;;;;;;10.90;3.40;;;;;;;-2.99;83.39;98681.98;108427;1274;22620;-77
2022/01/22 00:48:18;;;;;;;12.90;3.90;;;;;;;-3.01;83.53;98676.53;108442;1274;22555;-77
2022/01/22 00:50:45;;;;;;;10.50;3.00;;;;;;;-3.02;83.50;98676.03;108447;1274;22680;-77
2022/01/22 00:53:12;;;;;;;10.70;2.80;;;;;;;-3.05;83.24;98675.05;108444;1274;22549;-77
2022/01/22 00:55:39;;;;;;;6.80;2.20;;;;;;;-3.08;82.99;98670.82;108411;1274;22603;-77
2022/01/22 00:58:06;;;;;;;10.60;3.20;;;;;;;-3.11;82.82;98673.39;108426;1274;22622;-76
2022/01/22 01:00:34;;;;;;;11.80;4.50;;;;;;;-3.07;82.85;98670.30;108436;1274;22636;-75
2022/01/22 01:03:00;;;;;;;11.10;3.50;;;;;;;-3.05;83.15;98669.61;108439;1274;24241;-77
2022/01/22 01:05:27;;;;;;;7.20;2.70;;;;;;;-3.04;83.27;98665.48;108460;1274;22628;-76
2022/01/22 01:07:54;;;;;;;10.40;3.50;;;;;;;-3.06;83.58;98662.96;108429;1274;22539;-77
2022/01/22 01:10:21;;;;;;;9.40;3.00;;;;;;;-3.09;83.22;98661.46;108434;1274;22567;-77
2022/01/22 01:12:50;;;;;;;8.90;2.70;;;;;;;-3.12;83.04;98665.76;108435;1274;22550;-77
2022/01/22 01:15:43;;;;;;;8.70;2.70;;;;;;;-3.15;83.37;98664.94;108399;1274;25321;-76
2022/01/22 01:34:27;;;;;;;9.90;3.40;;;;;;;-3.17;83.08;98662.73;108432;1274;22559;-77
2022/01/22 01:36:54;;;;;;;9.70;3.60;;;;;;;-3.19;82.89;98656.10;108443;1274;22656;-78
2022/01/22 01:39:29;;;;;;;12.40;4.80;;;;;;;-3.18;82.67;98649.96;108438;1274;22576;-78
2022/01/22 01:42:03;;;;;;;14.20;6.00;;;;;;;-3.15;82.79;98651.65;108454;1274;22566;-76
2022/01/22 01:44:30;;;;;;;21.30;8.40;;;;;;;-3.15;83.11;98656.59;108437;1274;26953;-75
2022/01/22 01:47:00;;;;;;;17.40;6.10;;;;;;;-3.11;83.55;98659.09;108428;1274;22662;-78
2022/01/22 01:49:28;;;;;;;20.80;6.60;;;;;;;-3.14;83.46;98657.95;108460;1273;22555;-78
2022/01/22 01:51:59;;;;;;;10.00;3.80;;;;;;;-3.16;83.36;98661.20;108450;1273;22555;-78
2022/01/22 01:59:46;;;;;;;9.30;3.20;;;;;;;-3.21;82.50;98675.88;108430;1274;24413;-77
2022/01/22 02:02:13;;;;;;;10.90;3.60;;;;;;;-3.24;82.38;98672.02;108422;1273;22539;-77
2022/01/22 02:04:41;;;;;;;10.40;3.00;;;;;;;-3.22;82.26;98667.56;108459;1273;22588;-77
2022/01/22 02:07:09;;;;;;;6.80;2.20;;;;;;;-3.19;82.52;98669.56;108467;1274;25297;-77
2022/01/22 02:09:38;;;;;;;6.30;2.40;;;;;;;-3.19;82.85;98667.17;108447;1274;22552;-77
2022/01/22 02:12:15;;;;;;;6.70;2.10;;;;;;;-3.20;83.10;98665.82;108450;1273;22810;-76
2022/01/22 02:25:45;;;;;;;8.80;2.20;;;;;;;-3.32;81.98;98655.40;108543;1274;25644;-76
2022/01/22 02:28:13;;;;;;;5.70;2.10;;;;;;;-3.30;82.20;98663.36;108442;1274;22550;-78
2022/01/22 02:30:45;;;;;;;7.00;2.40;;;;;;;-3.29;82.01;98667.77;108431;1274;22556;-75
2022/01/22 02:36:00;;;;;;;7.00;2.30;;;;;;;-3.31;82.42;98672.42;108489;1274;22549;-77
2022/01/22 02:38:45;;;;;;;8.60;3.10;;;;;;;-3.34;82.44;98679.25;108469;1274;22697;-77
2022/01/22 02:41:16;;;;;;;7.40;2.90;;;;;;;-3.35;82.29;98683.17;108492;1274;22549;-76
2022/01/22 02:43:46;;;;;;;13.10;4.10;;;;;;;-3.35;82.23;98683.17;108438;1274;22564;-75
2022/01/22 02:46:16;;;;;;;12.30;4.80;;;;;;;-3.34;81.76;98681.64;108442;1274;22547;-76
2022/01/22 02:48:43;;;;;;;11.60;5.10;;;;;;;-3.31;81.75;98685.34;108459;1274;22632;-76
2022/01/22 02:51:10;;;;;;;12.40;4.60;;;;;;;-3.28;81.93;98686.52;108448;1273;22547;-76
2022/01/22 02:53:37;;;;;;;10.60;4.30;;;;;;;-3.25;81.95;98690.06;108472;1274;22713;-74
2022/01/22 02:56:04;;;;;;;12.70;5.00;;;;;;;-3.22;82.41;98682.88;108431;1274;22657;-75
2022/01/22 02:58:32;;;;;;;11.40;4.60;;;;;;;-3.19;82.37;98686.42;108424;1274;22582;-76
2022/01/22 03:00:59;;;;;;;10.50;4.50;;;;;;;-3.16;82.20;98693.56;108445;1274;22569;-75
2022/01/22 03:03:26;;;;;;;11.10;3.90;;;;;;;-3.16;81.95;98694.75;108428;1274;22562;-75
2022/01/22 03:05:52;;;;;;;11.50;3.80;;;;;;;-3.18;81.72;98696.81;108439;1274;22598;-75
2022/01/22 03:08:24;;;;;;;8.40;2.70;;;;;;;-3.20;81.64;98690.19;108428;1274;24225;-77
2022/01/22 03:10:53;;;;;;;7.80;2.50;;;;;;;-3.21;81.70;98688.14;108451;1275;22579;-76
2022/01/22 03:13:58;;;;;;;7.30;3.50;;;;;;;-3.23;81.88;98692.44;108423;1274;22636;-77
2022/01/22 03:29:20;;;;;;;9.30;4.10;;;;;;;-3.75;81.40;98699.83;108424;1274;22733;-76
2022/01/22 03:31:48;;;;;;;9.10;4.30;;;;;;;-3.82;81.21;98700.05;108434;1274;22630;-77
2022/01/22 03:34:15;;;;;;;9.60;4.20;;;;;;;-3.85;81.49;98700.07;108426;1274;22671;-76
2022/01/22 03:36:42;;;;;;;8.60;3.00;;;;;;;-3.88;81.53;98698.05;108457;1274;22638;-76
2022/01/22 03:39:09;;;;;;;7.30;3.70;;;;;;;-3.94;81.74;98706.26;108388;1274;26834;-75
2022/01/22 03:41:36;;;;;;;8.60;3.40;;;;;;;-3.98;81.41;98705.94;108398;1275;22574;-77
2022/01/22 03:44:08;;;;;;;9.10;3.70;;;;;;;-4.02;81.48;98706.98;108454;1274;22574;-77
2022/01/22 03:46:36;;;;;;;10.00;3.40;;;;;;;-4.07;81.30;98709.39;108465;1274;22548;-76
2022/01/22 03:49:04;;;;;;;9.10;3.50;;;;;;;-4.11;81.22;98711.63;108430;1274;25302;-76
2022/01/22 03:51:31;;;;;;;11.70;4.00;;;;;;;-4.18;81.13;98712.34;108488;1274;22566;-76
2022/01/22 03:53:58;;;;;;;10.40;4.60;;;;;;;-4.26;80.77;98711.87;108441;1274;22548;-78
2022/01/22 03:56:26;;;;;;;14.30;4.90;;;;;;;-4.33;80.64;98715.14;108429;1274;24374;-76
2022/01/22 03:58:53;;;;;;;14.60;5.60;;;;;;;-4.39;80.50;98721.12;108461;1274;22625;-77
2022/01/22 04:04:11;;;;;;;19.00;6.70;;;;;;;-4.47;80.31;98725.73;108431;1274;22542;-75
2022/01/22 04:09:09;;;;;;;31.20;9.10;;;;;;;-4.52;80.90;98728.47;108450;1274;25028;-77
2022/01/22 04:11:40;;;;;;;40.10;9.60;;;;;;;-4.51;80.72;98728.80;108441;1274;22563;-77
2022/01/22 04:14:14;;;;;;;31.40;9.30;;;;;;;-4.52;80.89;98727.28;108445;1274;22704;-78
2022/01/22 04:16:58;;;;;;;40.70;11.20;;;;;;;-4.52;80.76;98728.80;108428;1274;22749;-77
2022/01/22 04:25:12;;;;;;;15.40;6.60;;;;;;;-4.34;81.21;98737.08;108229;1274;22555;-76
2022/01/22 04:27:39;;;;;;;15.90;5.60;;;;;;;-4.29;81.68;98743.85;108455;1274;22611;-76
2022/01/22 04:30:07;;;;;;;14.80;5.40;;;;;;;-4.24;81.88;98738.91;108415;1274;22664;-75
2022/01/22 04:32:34;;;;;;;12.00;5.10;;;;;;;-4.20;82.04;98743.98;108439;1274;22623;-78
2022/01/22 04:35:02;;;;;;;15.30;5.20;;;;;;;-4.15;81.86;98745.33;108418;1274;22626;-76
2022/01/22 04:37:29;;;;;;;14.90;6.60;;;;;;;-4.13;81.69;98752.13;108455;1274;22633;-77
2022/01/22 04:39:55;;;;;;;24.20;9.60;;;;;;;-4.07;81.36;98756.68;108421;1274;22636;-77
2022/01/22 04:42:24;;;;;;;20.20;7.90;;;;;;;-4.00;81.36;98757.14;108430;1274;24299;-77
2022/01/22 04:45:03;;;;;;;14.00;5.70;;;;;;;-3.94;81.59;98758.14;108444;1274;22580;-76
2022/01/22 04:54:57;;;;;;;17.90;7.00;;;;;;;-3.90;81.96;98771.40;108433;1274;22543;-76
2022/01/22 04:55:31;;;;;;;15.80;5.50;;;;;;;-3.89;81.84;98778.71;108436;1273;22635;-76
2022/01/22 04:57:58;;;;;;;15.40;6.10;;;;;;;-3.91;81.36;98783.64;108437;1274;26511;-76
2022/01/22 05:00:25;;;;;;;19.10;7.60;;;;;;;-3.94;81.23;98785.71;108432;1273;22580;-77
2022/01/22 05:02:52;;;;;;;20.50;7.60;;;;;;;-3.97;81.00;98788.96;108422;1273;22682;-75
2022/01/22 05:05:19;;;;;;;19.30;7.90;;;;;;;-4.00;80.77;98788.79;108424;1274;22642;-75
2022/01/22 05:07:45;;;;;;;14.60;6.10;;;;;;;-4.03;80.70;98789.83;108453;1274;22592;-75
2022/01/22 05:10:13;;;;;;;11.50;5.40;;;;;;;-4.08;80.98;98793.59;108428;1274;22589;-76
2022/01/22 05:12:39;;;;;;;13.70;5.70;;;;;;;-4.14;81.05;98795.84;108445;1274;24224;-76
2022/01/22 05:15:08;;;;;;;13.00;5.00;;;;;;;-4.21;81.33;98801.98;108435;1274;22714;-77
2022/01/22 05:17:38;;;;;;;14.40;5.50;;;;;;;-4.27;81.16;98815.27;108358;1274;22640;-76
2022/01/22 05:20:13;;;;;;;15.90;6.90;;;;;;;-4.34;80.68;98823.61;108392;1274;22581;-79
2022/01/22 05:22:55;;;;;;;14.60;7.10;;;;;;;-4.43;80.50;98822.95;108456;1273;22708;-78
2022/01/22 05:25:34;;;;;;;12.10;6.10;;;;;;;-4.54;80.11;98823.48;108452;1273;25662;-79
2022/01/22 05:28:14;;;;;;;14.50;6.30;;;;;;;-4.62;80.15;98824.36;108517;1273;22542;-78
2022/01/22 05:38:31;;;;;;;16.10;8.00;;;;;;;-4.94;79.83;98835.45;108528;1273;22869;-76
2022/01/22 05:40:58;;;;;;;13.20;6.20;;;;;;;-4.97;79.95;98841.38;108521;1273;22547;-75
2022/01/22 05:43:26;;;;;;;14.80;6.40;;;;;;;-5.03;80.15;98843.08;108449;1273;22653;-75
2022/01/22 05:45:53;;;;;;;11.40;5.50;;;;;;;-5.09;80.36;98848.33;108418;1273;22568;-76
2022/01/22 05:48:20;;;;;;;14.80;6.60;;;;;;;-5.13;80.26;98849.36;108424;1274;22560;-76
2022/01/22 06:01:10;;;;;;;13.90;7.30;;;;;;;-5.34;79.68;98869.19;108464;1274;22552;-76
2022/01/22 06:03:37;;;;;;;16.80;7.90;;;;;;;-5.39;79.90;98869.88;108484;1273;22633;-76
2022/01/22 06:06:04;;;;;;;16.10;8.90;;;;;;;-5.41;79.53;98873.59;108442;1273;22568;-79
2022/01/22 06:08:40;;;;;;;21.60;10.60;;;;;;;-5.44;79.54;98881.20;108417;1272;22546;-76
2022/01/22 06:11:09;;;;;;;25.10;10.50;;;;;;;-5.46;80.22;98884.77;108444;1274;22549;-76
2022/01/22 06:13:46;;;;;;;25.00;11.20;;;;;;;-5.54;80.36;98889.35;108432;1274;25300;-75
2022/01/22 06:16:16;;;;;;;23.20;10.40;;;;;;;-5.62;80.23;98892.71;108450;1273;22652;-76
2022/01/22 06:18:44;;;;;;;26.20;11.70;;;;;;;-5.69;80.04;98907.95;108433;1273;22558;-76
2022/01/22 06:21:11;;;;;;;35.90;15.40;;;;;;;-5.76;79.91;98911.84;108440;1274;22545;-76
2022/01/22 06:23:40;;;;;;;41.50;16.60;;;;;;;-5.85;79.86;98916.04;108459;1274;22560;-74
2022/01/22 06:26:08;;;;;;;48.30;18.20;;;;;;;-5.94;79.62;98921.61;108471;1274;22553;-77
2022/01/22 06:28:36;;;;;;;50.00;20.00;;;;;;;-6.05;79.48;98920.20;108468;1273;22544;-75
2022/01/22 06:31:03;;;;;;;52.40;21.00;;;;;;;-6.09;79.39;98923.05;108442;1273;22567;-76
2022/01/22 06:33:31;;;;;;;56.60;22.70;;;;;;;-6.15;79.60;98928.61;108473;1273;22553;-76
2022/01/22 06:35:57;;;;;;;52.00;21.40;;;;;;;-6.22;79.92;98930.79;108452;1273;22559;-77
2022/01/22 06:38:24;;;;;;;55.60;23.50;;;;;;;-6.27;80.30;98931.77;108449;1274;22608;-76
2022/01/22 06:43:37;;;;;;;45.70;19.10;;;;;;;-6.36;80.30;98947.98;108442;1273;22579;-76
2022/01/22 06:46:04;;;;;;;43.00;18.70;;;;;;;-6.37;80.13;98945.27;108451;1273;23100;-75
2022/01/22 06:48:31;;;;;;;35.60;16.80;;;;;;;-6.37;80.10;98951.88;108424;1273;22566;-77
2022/01/22 06:50:59;;;;;;;47.20;21.20;;;;;;;-6.34;79.97;98958.83;108461;1273;22657;-77
2022/01/22 06:53:26;;;;;;;48.50;21.10;;;;;;;-6.31;80.03;98961.23;108436;1273;22563;-76
2022/01/22 06:56:00;;;;;;;54.50;23.70;;;;;;;-6.27;80.26;98968.05;108432;1273;22566;-76
2022/01/22 06:58:27;;;;;;;39.40;16.20;;;;;;;-6.24;80.72;98975.69;108436;1274;25323;-76
2022/01/22 07:00:54;;;;;;;24.50;11.20;;;;;;;-6.20;80.69;98981.48;108447;1273;22557;-75
2022/01/22 07:03:22;;;;;;;28.50;11.60;;;;;;;-6.11;81.15;98978.67;108426;1273;22547;-76
2022/01/22 07:05:49;;;;;;;26.90;11.70;;;;;;;-6.06;81.04;98983.95;108429;1273;22617;-75
2022/01/22 07:08:16;;;;;;;31.00;13.10;;;;;;;-5.98;81.11;98984.69;108445;1274;22554;-77
2022/01/22 07:10:43;;;;;;;31.50;13.50;;;;;;;-5.88;81.01;98992.69;108439;1274;26079;-75
2022/01/22 07:13:10;;;;;;;26.70;13.50;;;;;;;-5.78;81.25;98996.30;108428;1274;22700;-76
2022/01/22 07:15:36;;;;;;;27.90;13.40;;;;;;;-5.68;81.62;98991.77;108435;1273;22570;-78
2022/01/22 07:18:04;;;;;;;17.30;7.90;;;;;;;-5.58;82.02;98993.86;108427;1273;22621;-77
2022/01/22 07:20:34;;;;;;;20.10;8.40;;;;;;;-5.54;82.26;98993.38;108462;1273;22600;-76
2022/01/22 07:23:04;;;;;;;18.30;7.60;;;;;;;-5.48;82.10;98997.81;108452;1274;25332;-77
2022/01/22 07:25:31;;;;;;;14.40;7.00;;;;;;;-5.39;81.88;98997.86;108463;1273;22594;-79
2022/01/22 07:27:58;;;;;;;21.50;8.30;;;;;;;-5.29;81.82;99000.79;108455;1273;22602;-77
2022/01/22 07:30:25;;;;;;;18.80;8.80;;;;;;;-5.17;81.85;99003.20;108435;1274;22639;-78
2022/01/22 07:32:52;;;;;;;19.60;9.70;;;;;;;-5.03;81.74;99003.41;108444;1274;22704;-78
2022/01/22 07:35:19;;;;;;;16.60;8.40;;;;;;;-4.92;82.45;98996.98;108436;1274;24686;-77
2022/01/22 07:37:46;;;;;;;13.10;6.50;;;;;;;-4.83;82.80;99002.43;108444;1274;22580;-75
2022/01/22 07:40:14;;;;;;;15.50;6.70;;;;;;;-4.76;82.74;99001.61;108436;1273;22589;-77
2022/01/22 07:42:41;;;;;;;15.10;6.90;;;;;;;-4.72;82.60;99005.69;108449;1273;22579;-79
2022/01/22 07:45:10;;;;;;;25.60;11.30;;;;;;;-4.68;82.31;99009.61;108455;1274;22595;-76
2022/01/22 07:47:37;;;;;;;39.00;14.60;;;;;;;-4.63;82.08;99015.05;108475;1273;25325;-75
2022/01/22 07:50:06;;;;;;;38.50;16.50;;;;;;;-4.59;82.21;99018.45;108437;1274;22554;-76
2022/01/22 07:52:33;;;;;;;33.60;15.50;;;;;;;-4.51;81.79;99021.36;108435;1274;22549;-76
2022/01/22 07:55:00;;;;;;;32.00;15.50;;;;;;;-4.48;82.21;99025.44;108419;1273;25433;-76
2022/01/22 07:57:27;;;;;;;25.20;11.80;;;;;;;-4.42;82.56;99031.90;108494;1274;22538;-75
2022/01/22 07:59:54;;;;;;;37.50;15.90;;;;;;;-4.39;82.66;99032.25;108429;1274;22550;-77
2022/01/22 08:02:21;;;;;;;33.10;13.90;;;;;;;-4.32;82.72;99032.43;108504;1274;22599;-77
2022/01/22 08:04:48;;;;;;;26.10;12.50;;;;;;;-4.28;82.24;99035.14;108477;1274;22559;-77
2022/01/22 08:07:16;;;;;;;22.80;11.50;;;;;;;-4.22;82.09;99032.09;108436;1274;22705;-76
2022/01/22 08:09:45;;;;;;;19.00;10.00;;;;;;;-4.16;81.97;99036.67;108465;1274;22597;-77
2022/01/22 08:12:12;;;;;;;21.60;11.10;;;;;;;-4.06;81.82;99034.63;108530;1274;22622;-77
2022/01/22 08:14:39;;;;;;;21.10;10.90;;;;;;;-3.97;81.89;99039.57;108475;1274;22573;-77
2022/01/22 08:17:06;;;;;;;23.20;10.40;;;;;;;-3.88;82.32;99043.98;108502;1274;22617;-75
2022/01/22 08:19:33;;;;;;;17.20;8.70;;;;;;;-3.84;82.60;99041.42;108497;1274;22549;-76
2022/01/22 08:22:00;;;;;;;21.80;10.00;;;;;;;-3.77;82.64;99046.01;108482;1274;22563;-76
2022/01/22 08:24:27;;;;;;;18.70;8.90;;;;;;;-3.72;82.33;99046.85;108424;1273;22608;-76
2022/01/22 08:29:41;;;;;;;27.80;11.40;;;;;;;-3.69;82.03;99054.86;108512;1274;22555;-77
2022/01/22 08:37:29;;;;;;;28.00;13.20;;;;;;;-3.47;82.02;99063.48;108572;1274;24220;-75
2022/01/22 08:39:56;;;;;;;22.40;10.30;;;;;;;-3.41;82.45;99061.94;108516;1273;22672;-77
2022/01/22 08:42:24;;;;;;;23.60;10.50;;;;;;;-3.36;82.54;99062.95;108440;1274;22553;-77
2022/01/22 08:44:51;;;;;;;15.70;7.50;;;;;;;-3.32;82.08;99062.61;108549;1274;22565;-76
2022/01/22 08:47:17;;;;;;;18.50;7.70;;;;;;;-3.31;81.60;99063.27;108606;1274;22549;-75
2022/01/22 08:49:46;;;;;;;15.60;6.40;;;;;;;-3.30;81.47;99070.09;108488;1274;22665;-77
2022/01/22 08:52:13;;;;;;;17.40;7.40;;;;;;;-3.28;81.24;99072.63;108384;1274;22656;-74
2022/01/22 08:54:43;;;;;;;12.70;5.90;;;;;;;-3.19;81.10;99076.36;108483;1274;22557;-75
2022/01/22 08:57:11;;;;;;;18.90;8.00;;;;;;;-3.08;80.71;99083.31;108492;1274;22563;-75
2022/01/22 08:59:38;;;;;;;17.40;7.40;;;;;;;-3.03;81.27;99087.72;108548;1274;22554;-75
2022/01/22 09:02:06;;;;;;;17.20;6.50;;;;;;;-2.97;81.02;99098.61;108439;1273;22546;-74
2022/01/22 09:04:33;;;;;;;15.20;6.30;;;;;;;-2.95;80.71;99105.41;108505;1273;22556;-75
2022/01/22 09:07:01;;;;;;;18.70;7.50;;;;;;;-2.92;80.37;99115.10;108488;1274;22616;-75
2022/01/22 09:09:28;;;;;;;19.20;6.80;;;;;;;-2.93;80.43;99121.41;108480;1274;22578;-75
2022/01/22 09:11:56;;;;;;;19.60;8.80;;;;;;;-2.91;80.27;99127.55;108540;1272;22668;-77
2022/01/22 09:14:23;;;;;;;26.30;9.90;;;;;;;-2.87;80.38;99135.38;108474;1274;22543;-77
2022/01/22 09:16:53;;;;;;;30.50;12.20;;;;;;;-2.80;80.76;99145.92;108447;1274;22633;-78
2022/01/22 09:19:23;;;;;;;18.80;8.20;;;;;;;-2.70;80.68;99142.98;108487;1274;22574;-77
2022/01/22 09:21:50;;;;;;;18.00;8.10;;;;;;;-2.72;80.40;99140.95;108475;1274;22618;-77
2022/01/22 09:24:17;;;;;;;10.90;5.30;;;;;;;-2.72;80.12;99147.95;108435;1273;22632;-77
2022/01/22 09:26:45;;;;;;;12.30;5.60;;;;;;;-2.71;79.99;99147.95;108471;1274;25332;-74
2022/01/22 09:29:12;;;;;;;15.20;6.50;;;;;;;-2.70;79.48;99150.16;108491;1274;22561;-76
2022/01/22 09:31:39;;;;;;;15.40;6.90;;;;;;;-2.67;79.29;99153.88;108500;1274;22547;-78
2022/01/22 09:34:06;;;;;;;16.50;7.80;;;;;;;-2.60;79.38;99151.81;108438;1273;22557;-76
2022/01/22 09:36:34;;;;;;;12.30;5.60;;;;;;;-2.50;79.19;99146.65;108473;1274;22556;-75
2022/01/22 09:39:01;;;;;;;14.20;7.20;;;;;;;-2.39;78.97;99144.89;108512;1274;25416;-74
2022/01/22 09:41:28;;;;;;;15.00;7.00;;;;;;;-2.26;79.00;99144.48;108477;1274;22549;-77
2022/01/22 09:43:56;;;;;;;17.70;7.30;;;;;;;-2.22;78.75;99145.65;108474;1274;22564;-77
2022/01/22 09:46:26;;;;;;;17.20;7.40;;;;;;;-2.17;78.59;99146.83;108507;1273;24224;-75
2022/01/22 09:48:54;;;;;;;18.70;7.60;;;;;;;-2.12;78.40;99149.16;108500;1274;22545;-75
2022/01/22 09:51:22;;;;;;;16.50;6.80;;;;;;;-2.07;78.10;99148.64;108518;1274;22561;-77
2022/01/22 09:53:50;;;;;;;14.70;6.70;;;;;;;-2.02;77.55;99147.56;108508;1274;22865;-75
2022/01/22 09:56:20;;;;;;;18.70;7.90;;;;;;;-2.05;77.34;99143.49;108474;1274;22633;-75
2022/01/22 09:58:48;;;;;;;24.20;10.30;;;;;;;-2.08;77.32;99140.97;108452;1274;22563;-75
2022/01/22 10:01:19;;;;;;;30.10;12.30;;;;;;;-2.10;76.76;99138.41;108427;1273;22849;-77
2022/01/22 10:03:47;;;;;;;17.90;7.60;;;;;;;-2.11;77.36;99144.90;108461;1273;22555;-75
2022/01/22 10:06:16;;;;;;;18.90;7.70;;;;;;;-2.09;77.19;99144.72;108447;1274;22592;-77
2022/01/22 10:08:43;;;;;;;15.70;7.10;;;;;;;-2.12;77.41;99150.70;108438;1273;22632;-75
2022/01/22 10:11:25;;;;;;;18.00;8.70;;;;;;;-2.15;77.40;99156.88;108467;1273;22620;-77
2022/01/22 10:13:58;;;;;;;14.90;6.50;;;;;;;-2.17;76.86;99165.75;108455;1274;22579;-77
2022/01/22 10:16:31;;;;;;;18.80;8.00;;;;;;;-2.17;76.77;99172.93;108454;1273;22598;-75
2022/01/22 10:19:12;;;;;;;25.50;10.00;;;;;;;-2.15;76.31;99175.31;108446;1273;22712;-75
2022/01/22 10:21:56;;;;;;;17.40;8.00;;;;;;;-2.12;76.28;99181.59;108443;1273;22697;-77
2022/01/22 10:27:38;;;;;;;13.10;6.50;;;;;;;-2.00;76.17;99189.55;108456;1273;22559;-75
2022/01/22 10:30:16;;;;;;;20.00;8.70;;;;;;;-1.89;75.93;99188.11;108440;1273;25376;-76
2022/01/22 10:35:23;;;;;;;18.80;7.00;;;;;;;-1.77;75.89;99194.70;108470;1273;22559;-78
2022/01/22 10:38:01;;;;;;;12.90;6.10;;;;;;;-1.77;76.39;99199.47;108441;1273;22636;-77
2022/01/22 10:40:37;;;;;;;11.50;5.80;;;;;;;-1.70;75.81;99198.56;108438;1273;25365;-75
2022/01/22 10:43:34;;;;;;;17.10;7.20;;;;;;;-1.71;75.06;99201.83;108439;1273;22708;-77
2022/01/22 10:46:31;;;;;;;14.10;5.40;;;;;;;-1.72;74.94;99208.33;108422;1273;22635;-79
2022/01/22 10:49:04;;;;;;;20.00;7.40;;;;;;;-1.71;74.51;99206.44;108437;1273;22625;-79
2022/01/22 10:51:44;;;;;;;27.20;10.60;;;;;;;-1.71;74.33;99211.23;108429;1273;22578;-77
2022/01/22 10:54:14;;;;;;;20.10;8.50;;;;;;;-1.74;74.49;99212.27;108427;1273;22708;-75
2022/01/22 10:56:41;;;;;;;24.30;8.90;;;;;;;-1.72;74.37;99216.18;108474;1273;22565;-77
2022/01/22 10:59:10;;;;;;;20.50;6.90;;;;;;;-1.71;74.51;99213.44;108474;1273;25484;-78
2022/01/22 11:01:45;;;;;;;27.10;10.60;;;;;;;-1.67;73.93;99213.23;108449;1273;22643;-77
2022/01/22 11:04:21;;;;;;;44.20;18.00;;;;;;;-1.64;74.37;99209.30;108440;1273;25493;-78
2022/01/22 11:06:49;;;;;;;34.40;11.70;;;;;;;-1.61;74.71;99208.08;108462;1273;22578;-78
2022/01/22 11:09:17;;;;;;;17.70;7.10;;;;;;;-1.56;74.51;99199.83;108435;1273;22562;-79
2022/01/22 11:11:44;;;;;;;18.50;7.80;;;;;;;-1.60;74.09;99201.05;108449;1273;24225;-78
2022/01/22 11:14:12;;;;;;;15.90;7.90;;;;;;;-1.64;73.94;99202.46;108470;1273;22550;-78
2022/01/22 11:16:41;;;;;;;13.80;6.40;;;;;;;-1.66;73.89;99201.27;108533;1273;22616;-75
2022/01/22 11:19:10;;;;;;;17.30;6.90;;;;;;;-1.64;73.77;99203.99;108446;1273;22700;-77
2022/01/22 11:21:41;;;;;;;12.50;6.10;;;;;;;-1.62;73.71;99208.44;108464;1273;22620;-75
2022/01/22 11:24:09;;;;;;;19.10;7.50;;;;;;;-1.65;73.09;99209.30;108533;1273;22560;-76
2022/01/22 11:26:40;;;;;;;18.50;6.70;;;;;;;-1.66;73.45;99212.71;108441;1273;22570;-75
2022/01/22 11:29:07;;;;;;;24.60;9.30;;;;;;;-1.61;73.43;99212.51;108435;1275;22659;-77
2022/01/22 11:31:37;;;;;;;20.80;7.70;;;;;;;-1.61;73.42;99218.50;108430;1273;23013;-75
2022/01/22 11:34:07;;;;;;;22.50;8.30;;;;;;;-1.68;73.41;99215.46;108442;1274;26516;-77
2022/01/22 11:36:44;;;;;;;23.50;8.20;;;;;;;-1.72;73.44;99220.45;108425;1273;22566;-80
2022/01/22 11:39:19;;;;;;;14.90;6.40;;;;;;;-1.71;73.07;99220.95;108447;1274;22620;-73
2022/01/22 11:41:52;;;;;;;14.70;5.40;;;;;;;-1.78;72.88;99230.90;108523;1273;22550;-75
2022/01/22 11:44:26;;;;;;;12.00;4.90;;;;;;;-1.83;73.02;99229.90;108458;1273;22544;-77
2022/01/22 11:47:12;;;;;;;16.80;6.40;;;;;;;-1.88;73.09;99235.06;108430;1273;22541;-78
2022/01/22 11:49:40;;;;;;;11.20;4.70;;;;;;;-1.80;73.28;99235.34;108520;1273;22575;-76
2022/01/22 11:52:10;;;;;;;20.80;6.70;;;;;;;-1.82;72.77;99232.98;108501;1273;22569;-78
2022/01/22 11:55:10;;;;;;;15.10;5.90;;;;;;;-1.85;72.36;99242.55;108490;1273;22573;-76
2022/01/22 11:57:38;;;;;;;9.10;3.50;;;;;;;-1.94;72.55;99251.98;108318;1277;22714;-76
2022/01/22 12:00:25;;;;;;;11.00;4.80;;;;;;;-1.92;71.84;99255.23;108437;1275;22580;-75
2022/01/22 12:03:08;;;;;;;11.60;4.90;;;;;;;-2.00;72.40;99268.41;108460;1276;22553;-75
2022/01/22 12:06:04;;;;;;;11.10;3.80;;;;;;;-1.98;72.46;99268.39;108431;1277;22553;-75
2022/01/22 12:09:04;;;;;;;10.40;4.10;;;;;;;-1.93;72.70;99270.25;108404;1276;22574;-74
2022/01/22 12:14:53;;;;;;;8.70;3.10;;;;;;;-2.01;73.17;99264.48;108443;1276;22641;-75
2022/01/22 12:17:57;;;;;;;9.40;3.30;;;;;;;-1.94;72.92;99262.23;108434;1276;25429;-78
2022/01/22 12:20:42;;;;;;;12.90;3.80;;;;;;;-2.01;72.81;99263.30;108451;1275;22550;-76
2022/01/22 12:23:32;;;;;;;11.30;4.20;;;;;;;-2.02;72.97;99277.29;108437;1276;22566;-75
2022/01/22 12:26:02;;;;;;;11.20;4.00;;;;;;;-1.93;72.96;99281.52;108346;1276;22570;-75
2022/01/22 12:28:41;;;;;;;13.10;3.70;;;;;;;-1.89;72.83;99276.04;108387;1276;22717;-77
2022/01/22 12:31:18;;;;;;;10.40;3.80;;;;;;;-1.97;72.52;99278.30;108444;1276;22703;-77
2022/01/22 12:33:52;;;;;;;8.10;3.10;;;;;;;-2.02;72.56;99291.11;108450;1275;22541;-75
2022/01/22 12:36:26;;;;;;;10.70;3.20;;;;;;;-2.01;72.12;99291.96;108442;1276;22554;-77
2022/01/22 12:39:11;;;;;;;8.50;3.50;;;;;;;-2.08;72.46;99292.17;108450;1276;22594;-76
2022/01/22 12:44:07;;;;;;;15.30;5.70;;;;;;;-2.08;72.74;99303.44;108426;1276;22560;-77
2022/01/22 12:46:36;;;;;;;9.80;4.20;;;;;;;-2.09;72.82;99306.17;108467;1276;22569;-74
2022/01/22 12:49:06;;;;;;;10.50;3.60;;;;;;;-2.05;72.54;99311.95;108452;1276;22645;-74
2022/01/22 12:51:35;;;;;;;14.00;4.60;;;;;;;-2.09;73.11;99315.39;108448;1276;22608;-75
2022/01/22 12:54:03;;;;;;;10.40;4.50;;;;;;;-2.02;73.59;99319.45;108434;1276;22550;-75
2022/01/22 12:59:07;;;;;;;10.60;4.90;;;;;;;-2.03;73.52;99327.64;108409;1273;22623;-76
2022/01/22 13:01:36;;;;;;;16.10;4.30;;;;;;;-2.03;73.23;99331.73;108438;1273;22612;-75
2022/01/22 13:04:05;;;;;;;13.80;4.30;;;;;;;-2.05;73.16;99333.79;108440;1273;22553;-75
2022/01/22 13:06:50;;;;;;;11.10;3.90;;;;;;;-2.06;73.17;99339.94;108447;1274;26575;-76
2022/01/22 13:09:18;;;;;;;13.20;4.60;;;;;;;-2.06;72.98;99343.87;108462;1273;22557;-75
2022/01/22 13:11:52;;;;;;;14.40;4.30;;;;;;;-2.09;73.01;99345.42;108455;1273;22634;-75
2022/01/22 13:14:27;;;;;;;13.00;5.10;;;;;;;-2.09;72.93;99348.67;108456;1273;22557;-77
2022/01/22 13:16:56;;;;;;;12.30;4.10;;;;;;;-2.11;73.00;99359.08;108131;1273;416392;-77
2022/01/22 13:19:28;;;;;;;11.90;4.70;;;;;;;-2.13;72.94;99361.98;108445;1273;22627;-77
2022/01/22 13:22:02;;;;;;;18.80;4.60;;;;;;;-2.13;73.58;99366.24;108458;1273;26735;-77